sensor_id;sensor_type;location;lat;lon;timestamp;P1;durP1;ratioP1;P2;durP2;ratioP2
75423;SDS011;64005;55.160;36.002;2023-05-24T00:24:13;27.73;;;14.23;;
75423;SDS011;64005;55.160;36.002;2023-05-24T00:26:41;31.13;;;15.55;;
75423;SDS011;64005;55.160;36.002;2023-05-24T00:29:15;36.55;;;15.25;;
75423;SDS011;64005;55.160;36.002;2023-05-24T00:36:53;33.28;;;14.38;;
75423;SDS011;64005;55.160;36.002;2023-05-24T00:47:05;34.85;;;15.63;;
75423;SDS011;64005;55.160;36.002;2023-05-24T00:54:44;40.78;;;15.57;;
75423;SDS011;64005;55.160;36.002;2023-05-24T01:02:52;37.83;;;15.98;;
75423;SDS011;64005;55.160;36.002;2023-05-24T01:05:20;37.30;;;16.00;;
75423;SDS011;64005;55.160;36.002;2023-05-24T01:10:28;36.00;;;15.90;;
75423;SDS011;64005;55.160;36.002;2023-05-24T01:13:03;40.40;;;15.30;;
75423;SDS011;64005;55.160;36.002;2023-05-24T01:15:49;33.92;;;15.23;;
75423;SDS011;64005;55.160;36.002;2023-05-24T01:18:25;33.47;;;15.40;;
75423;SDS011;64005;55.160;36.002;2023-05-24T01:24:01;39.58;;;15.80;;
75423;SDS011;64005;55.160;36.002;2023-05-24T01:26:41;41.75;;;16.08;;
75423;SDS011;64005;55.160;36.002;2023-05-24T01:29:19;33.95;;;16.95;;
75423;SDS011;64005;55.160;36.002;2023-05-24T01:31:48;38.05;;;15.57;;
75423;SDS011;64005;55.160;36.002;2023-05-24T01:42:10;36.78;;;15.15;;
75423;SDS011;64005;55.160;36.002;2023-05-24T01:47:38;32.78;;;14.90;;
75423;SDS011;64005;55.160;36.002;2023-05-24T01:50:25;38.08;;;15.68;;
75423;SDS011;64005;55.160;36.002;2023-05-24T02:00:51;31.98;;;14.95;;
75423;SDS011;64005;55.160;36.002;2023-05-24T02:03:21;35.67;;;14.80;;
75423;SDS011;64005;55.160;36.002;2023-05-24T02:05:49;38.60;;;15.25;;
75423;SDS011;64005;55.160;36.002;2023-05-24T02:08:16;52.13;;;16.40;;
75423;SDS011;64005;55.160;36.002;2023-05-24T02:11:01;33.25;;;15.52;;
75423;SDS011;64005;55.160;36.002;2023-05-24T02:13:29;34.67;;;15.85;;
75423;SDS011;64005;55.160;36.002;2023-05-24T02:15:58;38.42;;;15.40;;
75423;SDS011;64005;55.160;36.002;2023-05-24T02:18:26;35.17;;;14.80;;
75423;SDS011;64005;55.160;36.002;2023-05-24T02:20:59;33.72;;;14.95;;
75423;SDS011;64005;55.160;36.002;2023-05-24T02:23:27;32.13;;;14.98;;
75423;SDS011;64005;55.160;36.002;2023-05-24T02:26:13;37.40;;;16.42;;
75423;SDS011;64005;55.160;36.002;2023-05-24T02:28:43;32.40;;;14.77;;
75423;SDS011;64005;55.160;36.002;2023-05-24T02:31:12;36.20;;;15.65;;
75423;SDS011;64005;55.160;36.002;2023-05-24T02:33:40;36.53;;;14.80;;
75423;SDS011;64005;55.160;36.002;2023-05-24T02:36:08;36.42;;;15.48;;
75423;SDS011;64005;55.160;36.002;2023-05-24T02:38:35;29.17;;;15.07;;
75423;SDS011;64005;55.160;36.002;2023-05-24T02:41:04;30.00;;;14.63;;
75423;SDS011;64005;55.160;36.002;2023-05-24T02:43:43;31.15;;;13.88;;
75423;SDS011;64005;55.160;36.002;2023-05-24T02:48:55;29.13;;;14.68;;
75423;SDS011;64005;55.160;36.002;2023-05-24T02:51:22;30.05;;;14.18;;
75423;SDS011;64005;55.160;36.002;2023-05-24T02:53:50;33.83;;;15.10;;
75423;SDS011;64005;55.160;36.002;2023-05-24T02:56:17;28.65;;;13.32;;
75423;SDS011;64005;55.160;36.002;2023-05-24T02:58:46;34.35;;;15.55;;
75423;SDS011;64005;55.160;36.002;2023-05-24T03:01:14;32.00;;;14.20;;
75423;SDS011;64005;55.160;36.002;2023-05-24T03:11:29;30.60;;;15.15;;
75423;SDS011;64005;55.160;36.002;2023-05-24T03:13:57;30.05;;;13.68;;
75423;SDS011;64005;55.160;36.002;2023-05-24T03:21:35;27.40;;;14.00;;
75423;SDS011;64005;55.160;36.002;2023-05-24T03:24:04;31.02;;;14.55;;
75423;SDS011;64005;55.160;36.002;2023-05-24T03:31:46;26.63;;;13.82;;
75423;SDS011;64005;55.160;36.002;2023-05-24T03:37:24;22.70;;;12.52;;
75423;SDS011;64005;55.160;36.002;2023-05-24T03:48:24;32.35;;;14.02;;
75423;SDS011;64005;55.160;36.002;2023-05-24T03:50:54;23.42;;;13.35;;
75423;SDS011;64005;55.160;36.002;2023-05-24T03:53:22;26.00;;;13.18;;
75423;SDS011;64005;55.160;36.002;2023-05-24T03:55:52;27.30;;;12.68;;
75423;SDS011;64005;55.160;36.002;2023-05-24T04:19:45;17.55;;;9.88;;
75423;SDS011;64005;55.160;36.002;2023-05-24T04:22:12;18.77;;;10.32;;
75423;SDS011;64005;55.160;36.002;2023-05-24T05:11:40;14.10;;;7.93;;
75423;SDS011;64005;55.160;36.002;2023-05-24T05:55:01;15.38;;;8.00;;
75423;SDS011;64005;55.160;36.002;2023-05-24T06:59:57;12.45;;;6.32;;
75423;SDS011;64005;55.160;36.002;2023-05-24T07:54:10;12.57;;;5.50;;
75423;SDS011;64005;55.160;36.002;2023-05-24T07:56:40;9.90;;;4.88;;
75423;SDS011;64005;55.160;36.002;2023-05-24T07:59:09;9.45;;;5.75;;
75423;SDS011;64005;55.160;36.002;2023-05-24T08:01:36;9.48;;;5.30;;
75423;SDS011;64005;55.160;36.002;2023-05-24T08:04:04;8.80;;;5.30;;
75423;SDS011;64005;55.160;36.002;2023-05-24T08:06:33;11.27;;;5.93;;
75423;SDS011;64005;55.160;36.002;2023-05-24T08:09:00;11.23;;;6.00;;
75423;SDS011;64005;55.160;36.002;2023-05-24T08:11:30;9.23;;;5.57;;
75423;SDS011;64005;55.160;36.002;2023-05-24T08:13:57;8.52;;;5.63;;
75423;SDS011;64005;55.160;36.002;2023-05-24T08:16:25;10.65;;;5.53;;
75423;SDS011;64005;55.160;36.002;2023-05-24T10:13:50;11.57;;;5.95;;
75423;SDS011;64005;55.160;36.002;2023-05-24T10:16:20;11.55;;;5.97;;
75423;SDS011;64005;55.160;36.002;2023-05-24T10:21:58;10.25;;;5.70;;
75423;SDS011;64005;55.160;36.002;2023-05-24T12:14:49;7.90;;;4.80;;
75423;SDS011;64005;55.160;36.002;2023-05-24T12:25:40;10.50;;;5.25;;
75423;SDS011;64005;55.160;36.002;2023-05-24T12:28:08;7.28;;;4.75;;
75423;SDS011;64005;55.160;36.002;2023-05-24T12:30:38;8.88;;;5.38;;
75423;SDS011;64005;55.160;36.002;2023-05-24T12:46:23;8.35;;;4.90;;
75423;SDS011;64005;55.160;36.002;2023-05-24T12:48:50;11.05;;;5.43;;
75423;SDS011;64005;55.160;36.002;2023-05-24T12:51:18;8.73;;;4.75;;
75423;SDS011;64005;55.160;36.002;2023-05-24T14:39:50;8.48;;;4.30;;
75423;SDS011;64005;55.160;36.002;2023-05-24T14:42:18;7.97;;;4.32;;
75423;SDS011;64005;55.160;36.002;2023-05-24T14:45:03;7.18;;;4.80;;
75423;SDS011;64005;55.160;36.002;2023-05-24T15:03:09;7.05;;;3.83;;
75423;SDS011;64005;55.160;36.002;2023-05-24T15:09:20;8.35;;;4.35;;
75423;SDS011;64005;55.160;36.002;2023-05-24T15:19:03;6.78;;;4.22;;
75423;SDS011;64005;55.160;36.002;2023-05-24T15:21:45;6.65;;;4.38;;
75423;SDS011;64005;55.160;36.002;2023-05-24T15:26:56;10.88;;;4.03;;
75423;SDS011;64005;55.160;36.002;2023-05-24T15:29:23;11.18;;;3.80;;
75423;SDS011;64005;55.160;36.002;2023-05-24T15:38:57;6.60;;;4.10;;
75423;SDS011;64005;55.160;36.002;2023-05-24T18:06:14;18.13;;;6.55;;
75423;SDS011;64005;55.160;36.002;2023-05-24T18:24:55;10.27;;;5.82;;
75423;SDS011;64005;55.160;36.002;2023-05-24T18:27:23;12.85;;;6.60;;
75423;SDS011;64005;55.160;36.002;2023-05-24T18:29:52;12.70;;;5.65;;
75423;SDS011;64005;55.160;36.002;2023-05-24T18:32:20;10.52;;;6.03;;
75423;SDS011;64005;55.160;36.002;2023-05-24T18:55:50;13.25;;;6.80;;
75423;SDS011;64005;55.160;36.002;2023-05-24T20:28:49;11.13;;;7.00;;
75423;SDS011;64005;55.160;36.002;2023-05-24T20:31:17;11.93;;;7.38;;
75423;SDS011;64005;55.160;36.002;2023-05-24T20:33:44;14.05;;;8.23;;
75423;SDS011;64005;55.160;36.002;2023-05-24T20:43:53;12.40;;;7.82;;
75423;SDS011;64005;55.160;36.002;2023-05-24T20:46:21;11.75;;;7.28;;
75423;SDS011;64005;55.160;36.002;2023-05-24T20:51:50;15.15;;;8.23;;
75423;SDS011;64005;55.160;36.002;2023-05-24T20:54:18;19.05;;;9.63;;
75423;SDS011;64005;55.160;36.002;2023-05-24T20:59:37;13.25;;;7.60;;
75423;SDS011;64005;55.160;36.002;2023-05-24T21:04:39;15.63;;;8.70;;
75423;SDS011;64005;55.160;36.002;2023-05-24T21:07:08;15.43;;;8.85;;
75423;SDS011;64005;55.160;36.002;2023-05-24T21:09:35;15.93;;;9.63;;
75423;SDS011;64005;55.160;36.002;2023-05-24T21:12:03;13.93;;;8.95;;
75423;SDS011;64005;55.160;36.002;2023-05-24T21:14:31;13.52;;;8.23;;
75423;SDS011;64005;55.160;36.002;2023-05-24T21:17:00;19.17;;;11.32;;
75423;SDS011;64005;55.160;36.002;2023-05-24T21:19:28;15.07;;;8.90;;
75423;SDS011;64005;55.160;36.002;2023-05-24T21:21:55;14.45;;;8.95;;
75423;SDS011;64005;55.160;36.002;2023-05-24T21:24:23;12.43;;;7.82;;
75423;SDS011;64005;55.160;36.002;2023-05-24T21:26:50;18.02;;;9.60;;
75423;SDS011;64005;55.160;36.002;2023-05-24T21:29:18;16.25;;;8.68;;
75423;SDS011;64005;55.160;36.002;2023-05-24T21:31:45;15.77;;;8.45;;
75423;SDS011;64005;55.160;36.002;2023-05-24T21:34:15;17.63;;;10.18;;
75423;SDS011;64005;55.160;36.002;2023-05-24T21:36:43;20.88;;;10.85;;
75423;SDS011;64005;55.160;36.002;2023-05-24T21:39:11;17.75;;;10.30;;
75423;SDS011;64005;55.160;36.002;2023-05-24T21:41:38;15.73;;;8.60;;
75423;SDS011;64005;55.160;36.002;2023-05-24T21:44:06;15.10;;;7.57;;
75423;SDS011;64005;55.160;36.002;2023-05-24T21:46:33;15.05;;;8.38;;
75423;SDS011;64005;55.160;36.002;2023-05-24T21:49:01;15.23;;;8.55;;
75423;SDS011;64005;55.160;36.002;2023-05-24T21:51:30;16.67;;;7.90;;
75423;SDS011;64005;55.160;36.002;2023-05-24T21:53:58;16.90;;;9.02;;
75423;SDS011;64005;55.160;36.002;2023-05-24T21:56:25;18.80;;;11.05;;
75423;SDS011;64005;55.160;36.002;2023-05-24T21:58:53;20.30;;;11.00;;
75423;SDS011;64005;55.160;36.002;2023-05-24T22:01:20;14.00;;;8.30;;
75423;SDS011;64005;55.160;36.002;2023-05-24T22:03:48;18.77;;;10.27;;
75423;SDS011;64005;55.160;36.002;2023-05-24T22:06:16;19.10;;;10.48;;
75423;SDS011;64005;55.160;36.002;2023-05-24T22:08:45;31.83;;;11.35;;
75423;SDS011;64005;55.160;36.002;2023-05-24T22:11:12;21.23;;;10.70;;
75423;SDS011;64005;55.160;36.002;2023-05-24T22:13:40;12.80;;;7.97;;
75423;SDS011;64005;55.160;36.002;2023-05-24T22:16:07;17.35;;;8.77;;
75423;SDS011;64005;55.160;36.002;2023-05-24T22:18:35;17.00;;;9.75;;
75423;SDS011;64005;55.160;36.002;2023-05-24T22:21:03;15.13;;;9.10;;
75423;SDS011;64005;55.160;36.002;2023-05-24T22:23:30;18.73;;;10.10;;
75423;SDS011;64005;55.160;36.002;2023-05-24T22:26:00;18.90;;;9.52;;
75423;SDS011;64005;55.160;36.002;2023-05-24T22:28:27;15.63;;;9.00;;
75423;SDS011;64005;55.160;36.002;2023-05-24T22:30:58;15.93;;;9.50;;
75423;SDS011;64005;55.160;36.002;2023-05-24T22:33:27;16.75;;;8.05;;
75423;SDS011;64005;55.160;36.002;2023-05-24T22:35:55;16.77;;;10.05;;
75423;SDS011;64005;55.160;36.002;2023-05-24T22:38:22;24.80;;;12.25;;
75423;SDS011;64005;55.160;36.002;2023-05-24T22:40:50;20.38;;;9.65;;
75423;SDS011;64005;55.160;36.002;2023-05-24T22:43:19;14.50;;;8.77;;
75423;SDS011;64005;55.160;36.002;2023-05-24T22:45:46;23.75;;;9.00;;
75423;SDS011;64005;55.160;36.002;2023-05-24T22:48:14;15.25;;;8.38;;
75423;SDS011;64005;55.160;36.002;2023-05-24T22:50:42;19.55;;;8.77;;
75423;SDS011;64005;55.160;36.002;2023-05-24T22:53:10;21.50;;;9.38;;
75423;SDS011;64005;55.160;36.002;2023-05-24T22:55:37;18.85;;;9.38;;
75423;SDS011;64005;55.160;36.002;2023-05-24T22:58:05;17.70;;;9.02;;
75423;SDS011;64005;55.160;36.002;2023-05-24T23:00:34;21.23;;;11.18;;
75423;SDS011;64005;55.160;36.002;2023-05-24T23:03:01;22.08;;;10.93;;
75423;SDS011;64005;55.160;36.002;2023-05-24T23:05:29;35.60;;;13.55;;
75423;SDS011;64005;55.160;36.002;2023-05-24T23:07:56;19.70;;;10.77;;
75423;SDS011;64005;55.160;36.002;2023-05-24T23:37:25;70.07;;;13.55;;
75423;SDS011;64005;55.160;36.002;2023-05-24T23:45:38;44.97;;;9.00;;
